sensor_id;sensor_type;location;lat;lon;timestamp;P1;durP1;ratioP1;P2;durP2;ratioP2
35114;SDS011;21292;52.416;13.046;2022-09-12T00:00:03;12.85;;;9.13;;
35114;SDS011;21292;52.416;13.046;2022-09-12T00:02:35;11.73;;;8.95;;
35114;SDS011;21292;52.416;13.046;2022-09-12T00:05:04;10.80;;;8.63;;
35114;SDS011;21292;52.416;13.046;2022-09-12T00:07:34;11.55;;;8.50;;
35114;SDS011;21292;52.416;13.046;2022-09-12T00:10:04;12.20;;;8.45;;
35114;SDS011;21292;52.416;13.046;2022-09-12T00:12:33;11.18;;;8.25;;
35114;SDS011;21292;52.416;13.046;2022-09-12T00:15:02;13.23;;;8.45;;
35114;SDS011;21292;52.416;13.046;2022-09-12T00:17:32;8.93;;;7.95;;
35114;SDS011;21292;52.416;13.046;2022-09-12T00:20:03;9.82;;;8.10;;
35114;SDS011;21292;52.416;13.046;2022-09-12T00:22:33;9.07;;;8.10;;
35114;SDS011;21292;52.416;13.046;2022-09-12T00:25:02;11.20;;;7.53;;
35114;SDS011;21292;52.416;13.046;2022-09-12T00:27:31;10.90;;;7.90;;
35114;SDS011;21292;52.416;13.046;2022-09-12T00:29:59;11.95;;;8.18;;
35114;SDS011;21292;52.416;13.046;2022-09-12T00:32:27;9.70;;;7.78;;
35114;SDS011;21292;52.416;13.046;2022-09-12T00:34:57;10.15;;;7.78;;
35114;SDS011;21292;52.416;13.046;2022-09-12T00:37:25;8.63;;;7.43;;
35114;SDS011;21292;52.416;13.046;2022-09-12T00:39:53;11.30;;;9.07;;
35114;SDS011;21292;52.416;13.046;2022-09-12T00:42:22;14.30;;;9.15;;
35114;SDS011;21292;52.416;13.046;2022-09-12T00:44:51;12.05;;;9.75;;
35114;SDS011;21292;52.416;13.046;2022-09-12T00:47:21;11.48;;;9.48;;
35114;SDS011;21292;52.416;13.046;2022-09-12T00:49:53;14.90;;;9.75;;
35114;SDS011;21292;52.416;13.046;2022-09-12T00:52:26;12.40;;;9.43;;
35114;SDS011;21292;52.416;13.046;2022-09-12T00:54:57;16.17;;;10.48;;
35114;SDS011;21292;52.416;13.046;2022-09-12T00:57:29;14.20;;;10.50;;
35114;SDS011;21292;52.416;13.046;2022-09-12T01:00:00;11.07;;;9.35;;
35114;SDS011;21292;52.416;13.046;2022-09-12T01:02:37;14.27;;;11.15;;
35114;SDS011;21292;52.416;13.046;2022-09-12T01:05:05;19.02;;;11.80;;
35114;SDS011;21292;52.416;13.046;2022-09-12T01:07:36;16.48;;;11.80;;
35114;SDS011;21292;52.416;13.046;2022-09-12T01:10:06;15.23;;;11.82;;
35114;SDS011;21292;52.416;13.046;2022-09-12T01:12:36;13.63;;;10.10;;
35114;SDS011;21292;52.416;13.046;2022-09-12T01:15:06;14.23;;;10.43;;
35114;SDS011;21292;52.416;13.046;2022-09-12T01:17:37;23.95;;;12.10;;
35114;SDS011;21292;52.416;13.046;2022-09-12T01:20:20;15.65;;;12.48;;
35114;SDS011;21292;52.416;13.046;2022-09-12T01:23:16;15.55;;;11.55;;
35114;SDS011;21292;52.416;13.046;2022-09-12T01:26:26;15.02;;;11.35;;
35114;SDS011;21292;52.416;13.046;2022-09-12T01:29:24;11.45;;;9.35;;
35114;SDS011;21292;52.416;13.046;2022-09-12T01:32:36;13.10;;;9.90;;
35114;SDS011;21292;52.416;13.046;2022-09-12T01:35:11;14.02;;;10.38;;
35114;SDS011;21292;52.416;13.046;2022-09-12T01:37:48;13.90;;;11.25;;
35114;SDS011;21292;52.416;13.046;2022-09-12T01:40:21;13.88;;;11.45;;
35114;SDS011;21292;52.416;13.046;2022-09-12T01:42:53;15.82;;;11.23;;
35114;SDS011;21292;52.416;13.046;2022-09-12T01:45:27;17.60;;;13.10;;
35114;SDS011;21292;52.416;13.046;2022-09-12T01:48:06;15.90;;;10.63;;
35114;SDS011;21292;52.416;13.046;2022-09-12T01:50:42;15.82;;;11.27;;
35114;SDS011;21292;52.416;13.046;2022-09-12T01:53:14;14.10;;;10.90;;
35114;SDS011;21292;52.416;13.046;2022-09-12T01:55:46;21.67;;;12.30;;
35114;SDS011;21292;52.416;13.046;2022-09-12T01:58:18;19.80;;;13.48;;
35114;SDS011;21292;52.416;13.046;2022-09-12T02:00:51;19.00;;;12.50;;
35114;SDS011;21292;52.416;13.046;2022-09-12T02:03:28;18.45;;;11.38;;
35114;SDS011;21292;52.416;13.046;2022-09-12T02:06:00;16.98;;;11.07;;
35114;SDS011;21292;52.416;13.046;2022-09-12T02:08:31;13.80;;;10.48;;
35114;SDS011;21292;52.416;13.046;2022-09-12T02:11:03;18.70;;;12.73;;
35114;SDS011;21292;52.416;13.046;2022-09-12T02:13:37;19.25;;;11.27;;
35114;SDS011;21292;52.416;13.046;2022-09-12T02:16:09;14.95;;;10.55;;
35114;SDS011;21292;52.416;13.046;2022-09-12T02:18:43;13.10;;;9.73;;
35114;SDS011;21292;52.416;13.046;2022-09-12T02:21:13;12.70;;;9.85;;
35114;SDS011;21292;52.416;13.046;2022-09-12T02:23:43;14.35;;;9.82;;
35114;SDS011;21292;52.416;13.046;2022-09-12T02:26:16;14.40;;;10.10;;
35114;SDS011;21292;52.416;13.046;2022-09-12T02:28:48;11.48;;;9.40;;
35114;SDS011;21292;52.416;13.046;2022-09-12T02:31:19;13.20;;;9.68;;
35114;SDS011;21292;52.416;13.046;2022-09-12T02:33:56;14.20;;;10.48;;
35114;SDS011;21292;52.416;13.046;2022-09-12T02:36:36;11.82;;;9.00;;
35114;SDS011;21292;52.416;13.046;2022-09-12T02:39:10;12.98;;;8.73;;
35114;SDS011;21292;52.416;13.046;2022-09-12T02:41:38;12.90;;;9.43;;
35114;SDS011;21292;52.416;13.046;2022-09-12T02:44:06;10.02;;;8.65;;
35114;SDS011;21292;52.416;13.046;2022-09-12T02:46:35;15.32;;;9.68;;
35114;SDS011;21292;52.416;13.046;2022-09-12T02:49:07;16.40;;;11.33;;
35114;SDS011;21292;52.416;13.046;2022-09-12T02:51:36;14.48;;;11.52;;
35114;SDS011;21292;52.416;13.046;2022-09-12T02:54:05;21.95;;;11.73;;
35114;SDS011;21292;52.416;13.046;2022-09-12T02:56:34;16.13;;;10.80;;
35114;SDS011;21292;52.416;13.046;2022-09-12T02:59:03;18.58;;;11.70;;
35114;SDS011;21292;52.416;13.046;2022-09-12T03:01:45;16.90;;;11.63;;
35114;SDS011;21292;52.416;13.046;2022-09-12T03:04:28;12.38;;;9.57;;
35114;SDS011;21292;52.416;13.046;2022-09-12T03:07:09;14.75;;;9.75;;
35114;SDS011;21292;52.416;13.046;2022-09-12T03:09:41;12.57;;;9.88;;
35114;SDS011;21292;52.416;13.046;2022-09-12T03:12:17;17.60;;;10.65;;
35114;SDS011;21292;52.416;13.046;2022-09-12T03:14:56;18.90;;;12.65;;
35114;SDS011;21292;52.416;13.046;2022-09-12T03:17:34;16.88;;;11.98;;
35114;SDS011;21292;52.416;13.046;2022-09-12T03:20:10;18.30;;;12.05;;
35114;SDS011;21292;52.416;13.046;2022-09-12T03:22:44;16.70;;;10.73;;
35114;SDS011;21292;52.416;13.046;2022-09-12T03:25:20;15.60;;;11.93;;
35114;SDS011;21292;52.416;13.046;2022-09-12T03:27:52;15.73;;;10.40;;
35114;SDS011;21292;52.416;13.046;2022-09-12T03:30:25;16.25;;;11.65;;
35114;SDS011;21292;52.416;13.046;2022-09-12T03:32:54;15.35;;;10.70;;
35114;SDS011;21292;52.416;13.046;2022-09-12T03:35:26;13.80;;;10.20;;
35114;SDS011;21292;52.416;13.046;2022-09-12T03:37:55;15.50;;;11.18;;
35114;SDS011;21292;52.416;13.046;2022-09-12T03:40:23;14.07;;;10.73;;
35114;SDS011;21292;52.416;13.046;2022-09-12T03:42:55;18.08;;;10.88;;
35114;SDS011;21292;52.416;13.046;2022-09-12T03:45:23;18.95;;;12.27;;
35114;SDS011;21292;52.416;13.046;2022-09-12T03:47:51;19.55;;;12.82;;
35114;SDS011;21292;52.416;13.046;2022-09-12T03:50:19;18.88;;;12.57;;
35114;SDS011;21292;52.416;13.046;2022-09-12T03:52:48;16.40;;;10.90;;
35114;SDS011;21292;52.416;13.046;2022-09-12T03:55:18;18.98;;;13.10;;
35114;SDS011;21292;52.416;13.046;2022-09-12T03:57:52;19.35;;;13.90;;
35114;SDS011;21292;52.416;13.046;2022-09-12T04:00:22;18.48;;;11.23;;
35114;SDS011;21292;52.416;13.046;2022-09-12T04:02:54;17.88;;;12.15;;
35114;SDS011;21292;52.416;13.046;2022-09-12T04:05:22;19.13;;;12.82;;
35114;SDS011;21292;52.416;13.046;2022-09-12T04:07:54;14.70;;;9.82;;
35114;SDS011;21292;52.416;13.046;2022-09-12T04:10:22;12.15;;;7.95;;
35114;SDS011;21292;52.416;13.046;2022-09-12T04:13:03;9.68;;;7.55;;
35114;SDS011;21292;52.416;13.046;2022-09-12T04:15:31;9.90;;;7.68;;
35114;SDS011;21292;52.416;13.046;2022-09-12T04:18:00;12.07;;;9.23;;
35114;SDS011;21292;52.416;13.046;2022-09-12T04:20:37;15.73;;;9.52;;
35114;SDS011;21292;52.416;13.046;2022-09-12T04:23:07;12.52;;;9.45;;
35114;SDS011;21292;52.416;13.046;2022-09-12T04:25:38;17.20;;;9.10;;
35114;SDS011;21292;52.416;13.046;2022-09-12T04:28:09;17.30;;;12.60;;
35114;SDS011;21292;52.416;13.046;2022-09-12T04:30:38;16.85;;;12.13;;
35114;SDS011;21292;52.416;13.046;2022-09-12T04:33:06;17.80;;;11.25;;
35114;SDS011;21292;52.416;13.046;2022-09-12T04:35:35;14.30;;;10.73;;
35114;SDS011;21292;52.416;13.046;2022-09-12T04:38:04;14.27;;;9.57;;
35114;SDS011;21292;52.416;13.046;2022-09-12T04:40:34;10.80;;;9.00;;
35114;SDS011;21292;52.416;13.046;2022-09-12T04:43:02;10.93;;;8.93;;
35114;SDS011;21292;52.416;13.046;2022-09-12T04:45:40;15.23;;;9.98;;
35114;SDS011;21292;52.416;13.046;2022-09-12T04:48:08;13.48;;;9.75;;
35114;SDS011;21292;52.416;13.046;2022-09-12T04:50:36;17.67;;;11.48;;
35114;SDS011;21292;52.416;13.046;2022-09-12T04:53:05;17.73;;;11.10;;
35114;SDS011;21292;52.416;13.046;2022-09-12T04:55:34;17.10;;;11.18;;
35114;SDS011;21292;52.416;13.046;2022-09-12T04:58:05;19.73;;;13.00;;
35114;SDS011;21292;52.416;13.046;2022-09-12T05:00:33;24.73;;;15.63;;
35114;SDS011;21292;52.416;13.046;2022-09-12T05:03:01;27.95;;;15.60;;
35114;SDS011;21292;52.416;13.046;2022-09-12T05:05:32;26.90;;;14.52;;
35114;SDS011;21292;52.416;13.046;2022-09-12T05:08:01;27.08;;;15.80;;
35114;SDS011;21292;52.416;13.046;2022-09-12T05:10:31;21.40;;;14.77;;
35114;SDS011;21292;52.416;13.046;2022-09-12T05:13:05;25.05;;;14.98;;
35114;SDS011;21292;52.416;13.046;2022-09-12T05:15:35;24.33;;;16.65;;
35114;SDS011;21292;52.416;13.046;2022-09-12T05:18:03;24.77;;;16.35;;
35114;SDS011;21292;52.416;13.046;2022-09-12T05:20:32;29.83;;;16.98;;
35114;SDS011;21292;52.416;13.046;2022-09-12T05:23:01;25.88;;;14.75;;
35114;SDS011;21292;52.416;13.046;2022-09-12T05:25:30;70.30;;;16.42;;
35114;SDS011;21292;52.416;13.046;2022-09-12T05:27:58;41.90;;;15.30;;
35114;SDS011;21292;52.416;13.046;2022-09-12T05:30:28;19.77;;;13.07;;
35114;SDS011;21292;52.416;13.046;2022-09-12T05:32:56;17.60;;;12.45;;
35114;SDS011;21292;52.416;13.046;2022-09-12T05:35:25;16.25;;;12.07;;
35114;SDS011;21292;52.416;13.046;2022-09-12T05:37:53;12.48;;;10.18;;
35114;SDS011;21292;52.416;13.046;2022-09-12T05:40:24;11.50;;;8.77;;
35114;SDS011;21292;52.416;13.046;2022-09-12T05:42:53;10.02;;;7.53;;
35114;SDS011;21292;52.416;13.046;2022-09-12T05:45:21;10.05;;;7.43;;
35114;SDS011;21292;52.416;13.046;2022-09-12T05:47:53;8.30;;;6.82;;
35114;SDS011;21292;52.416;13.046;2022-09-12T05:50:21;7.40;;;5.75;;
35114;SDS011;21292;52.416;13.046;2022-09-12T05:52:50;7.78;;;5.57;;
35114;SDS011;21292;52.416;13.046;2022-09-12T05:55:18;5.38;;;4.88;;
35114;SDS011;21292;52.416;13.046;2022-09-12T05:57:47;5.90;;;5.32;;
35114;SDS011;21292;52.416;13.046;2022-09-12T06:00:16;7.60;;;5.07;;
35114;SDS011;21292;52.416;13.046;2022-09-12T06:02:50;5.78;;;5.18;;
35114;SDS011;21292;52.416;13.046;2022-09-12T06:05:20;4.80;;;4.30;;
35114;SDS011;21292;52.416;13.046;2022-09-12T06:07:50;6.43;;;4.40;;
35114;SDS011;21292;52.416;13.046;2022-09-12T06:10:19;7.85;;;5.47;;
35114;SDS011;21292;52.416;13.046;2022-09-12T06:12:50;4.85;;;4.45;;
35114;SDS011;21292;52.416;13.046;2022-09-12T06:15:18;5.55;;;4.80;;
35114;SDS011;21292;52.416;13.046;2022-09-12T06:17:47;6.82;;;4.90;;
35114;SDS011;21292;52.416;13.046;2022-09-12T06:20:17;7.32;;;5.25;;
35114;SDS011;21292;52.416;13.046;2022-09-12T06:22:47;8.70;;;4.30;;
35114;SDS011;21292;52.416;13.046;2022-09-12T06:25:20;10.55;;;7.88;;
35114;SDS011;21292;52.416;13.046;2022-09-12T06:27:49;4.82;;;4.35;;
35114;SDS011;21292;52.416;13.046;2022-09-12T06:30:17;4.88;;;3.90;;
35114;SDS011;21292;52.416;13.046;2022-09-12T06:32:51;4.38;;;3.60;;
35114;SDS011;21292;52.416;13.046;2022-09-12T06:35:19;5.75;;;3.60;;
35114;SDS011;21292;52.416;13.046;2022-09-12T06:37:49;4.95;;;3.53;;
35114;SDS011;21292;52.416;13.046;2022-09-12T06:40:18;4.57;;;4.00;;
35114;SDS011;21292;52.416;13.046;2022-09-12T06:42:46;5.00;;;3.63;;
35114;SDS011;21292;52.416;13.046;2022-09-12T06:45:14;4.15;;;3.75;;
35114;SDS011;21292;52.416;13.046;2022-09-12T06:47:45;8.20;;;4.00;;
35114;SDS011;21292;52.416;13.046;2022-09-12T06:50:14;3.72;;;3.42;;
35114;SDS011;21292;52.416;13.046;2022-09-12T06:52:42;4.13;;;3.72;;
35114;SDS011;21292;52.416;13.046;2022-09-12T06:55:13;4.50;;;3.60;;
35114;SDS011;21292;52.416;13.046;2022-09-12T06:57:48;3.20;;;2.90;;
35114;SDS011;21292;52.416;13.046;2022-09-12T07:00:16;4.07;;;3.33;;
35114;SDS011;21292;52.416;13.046;2022-09-12T07:02:45;3.28;;;2.95;;
35114;SDS011;21292;52.416;13.046;2022-09-12T07:05:14;2.95;;;2.75;;
35114;SDS011;21292;52.416;13.046;2022-09-12T07:07:42;6.03;;;3.30;;
35114;SDS011;21292;52.416;13.046;2022-09-12T07:10:10;3.45;;;3.05;;
35114;SDS011;21292;52.416;13.046;2022-09-12T07:12:48;4.57;;;3.28;;
35114;SDS011;21292;52.416;13.046;2022-09-12T07:15:16;3.95;;;3.55;;
35114;SDS011;21292;52.416;13.046;2022-09-12T07:17:45;4.18;;;3.33;;
35114;SDS011;21292;52.416;13.046;2022-09-12T07:20:13;3.58;;;3.28;;
35114;SDS011;21292;52.416;13.046;2022-09-12T07:22:42;4.15;;;3.65;;
35114;SDS011;21292;52.416;13.046;2022-09-12T07:25:10;3.85;;;3.30;;
35114;SDS011;21292;52.416;13.046;2022-09-12T07:27:39;4.13;;;3.35;;
35114;SDS011;21292;52.416;13.046;2022-09-12T07:30:13;3.40;;;2.90;;
35114;SDS011;21292;52.416;13.046;2022-09-12T07:32:42;3.15;;;2.85;;
35114;SDS011;21292;52.416;13.046;2022-09-12T07:35:10;3.33;;;2.75;;
35114;SDS011;21292;52.416;13.046;2022-09-12T07:37:38;5.55;;;3.38;;
35114;SDS011;21292;52.416;13.046;2022-09-12T07:40:07;3.40;;;3.10;;
35114;SDS011;21292;52.416;13.046;2022-09-12T07:42:36;4.45;;;3.13;;
35114;SDS011;21292;52.416;13.046;2022-09-12T07:45:04;5.32;;;2.80;;
35114;SDS011;21292;52.416;13.046;2022-09-12T07:47:35;4.90;;;2.60;;
35114;SDS011;21292;52.416;13.046;2022-09-12T07:50:04;3.38;;;2.45;;
35114;SDS011;21292;52.416;13.046;2022-09-12T07:52:33;3.92;;;2.50;;
35114;SDS011;21292;52.416;13.046;2022-09-12T07:55:02;4.55;;;2.55;;
35114;SDS011;21292;52.416;13.046;2022-09-12T07:57:30;2.63;;;2.40;;
35114;SDS011;21292;52.416;13.046;2022-09-12T07:59:58;2.75;;;2.38;;
35114;SDS011;21292;52.416;13.046;2022-09-12T08:02:27;2.97;;;2.45;;
35114;SDS011;21292;52.416;13.046;2022-09-12T08:04:57;6.30;;;2.22;;
35114;SDS011;21292;52.416;13.046;2022-09-12T08:07:27;6.70;;;2.47;;
35114;SDS011;21292;52.416;13.046;2022-09-12T08:09:55;2.80;;;2.08;;
35114;SDS011;21292;52.416;13.046;2022-09-12T08:12:23;4.55;;;2.63;;
35114;SDS011;21292;52.416;13.046;2022-09-12T08:14:52;5.93;;;2.70;;
35114;SDS011;21292;52.416;13.046;2022-09-12T08:17:22;3.13;;;1.80;;
35114;SDS011;21292;52.416;13.046;2022-09-12T08:19:50;2.75;;;2.10;;
35114;SDS011;21292;52.416;13.046;2022-09-12T08:22:22;4.50;;;2.22;;
35114;SDS011;21292;52.416;13.046;2022-09-12T08:27:20;4.13;;;2.10;;
35114;SDS011;21292;52.416;13.046;2022-09-12T08:29:49;10.02;;;2.85;;
35114;SDS011;21292;52.416;13.046;2022-09-12T08:32:18;4.22;;;2.08;;
35114;SDS011;21292;52.416;13.046;2022-09-12T08:34:47;3.10;;;2.70;;
35114;SDS011;21292;52.416;13.046;2022-09-12T08:37:15;3.45;;;1.98;;
35114;SDS011;21292;52.416;13.046;2022-09-12T08:39:46;3.80;;;2.13;;
35114;SDS011;21292;52.416;13.046;2022-09-12T08:42:15;2.22;;;2.00;;
35114;SDS011;21292;52.416;13.046;2022-09-12T08:45:02;4.63;;;2.13;;
35114;SDS011;21292;52.416;13.046;2022-09-12T08:47:36;3.13;;;1.90;;
35114;SDS011;21292;52.416;13.046;2022-09-12T08:50:09;3.85;;;1.45;;
35114;SDS011;21292;52.416;13.046;2022-09-12T08:52:44;2.13;;;1.90;;
35114;SDS011;21292;52.416;13.046;2022-09-12T08:55:28;2.15;;;1.52;;
35114;SDS011;21292;52.416;13.046;2022-09-12T08:57:59;2.03;;;1.58;;
35114;SDS011;21292;52.416;13.046;2022-09-12T09:00:29;4.85;;;2.05;;
35114;SDS011;21292;52.416;13.046;2022-09-12T09:03:07;5.05;;;1.90;;
35114;SDS011;21292;52.416;13.046;2022-09-12T09:05:46;12.45;;;2.05;;
35114;SDS011;21292;52.416;13.046;2022-09-12T09:08:32;2.42;;;1.50;;
35114;SDS011;21292;52.416;13.046;2022-09-12T09:11:16;1.90;;;1.77;;
35114;SDS011;21292;52.416;13.046;2022-09-12T09:13:53;2.38;;;1.55;;
35114;SDS011;21292;52.416;13.046;2022-09-12T09:16:45;7.90;;;3.35;;
35114;SDS011;21292;52.416;13.046;2022-09-12T09:19:19;4.00;;;2.40;;
35114;SDS011;21292;52.416;13.046;2022-09-12T09:21:49;4.10;;;2.00;;
35114;SDS011;21292;52.416;13.046;2022-09-12T09:24:20;4.32;;;2.70;;
35114;SDS011;21292;52.416;13.046;2022-09-12T09:26:55;7.03;;;3.13;;
35114;SDS011;21292;52.416;13.046;2022-09-12T09:31:54;3.15;;;1.67;;
35114;SDS011;21292;52.416;13.046;2022-09-12T09:34:27;1.58;;;1.30;;
35114;SDS011;21292;52.416;13.046;2022-09-12T09:36:58;5.55;;;1.67;;
35114;SDS011;21292;52.416;13.046;2022-09-12T09:39:37;4.50;;;2.17;;
35114;SDS011;21292;52.416;13.046;2022-09-12T09:42:19;2.42;;;1.50;;
35114;SDS011;21292;52.416;13.046;2022-09-12T09:44:53;1.48;;;1.20;;
35114;SDS011;21292;52.416;13.046;2022-09-12T09:47:24;1.73;;;1.50;;
35114;SDS011;21292;52.416;13.046;2022-09-12T09:49:55;4.25;;;1.60;;
35114;SDS011;21292;52.416;13.046;2022-09-12T09:54:57;1.05;;;0.93;;
35114;SDS011;21292;52.416;13.046;2022-09-12T09:57:44;1.77;;;1.42;;
35114;SDS011;21292;52.416;13.046;2022-09-12T10:00:20;1.17;;;1.08;;
35114;SDS011;21292;52.416;13.046;2022-09-12T10:05:54;4.75;;;1.25;;
35114;SDS011;21292;52.416;13.046;2022-09-12T10:08:27;3.70;;;1.27;;
35114;SDS011;21292;52.416;13.046;2022-09-12T10:11:00;2.53;;;1.77;;
35114;SDS011;21292;52.416;13.046;2022-09-12T10:13:40;2.33;;;1.40;;
35114;SDS011;21292;52.416;13.046;2022-09-12T10:16:16;1.73;;;1.25;;
35114;SDS011;21292;52.416;13.046;2022-09-12T10:18:47;2.10;;;1.27;;
35114;SDS011;21292;52.416;13.046;2022-09-12T10:21:19;2.28;;;1.67;;
35114;SDS011;21292;52.416;13.046;2022-09-12T10:23:50;2.40;;;1.30;;
35114;SDS011;21292;52.416;13.046;2022-09-12T10:26:20;4.28;;;1.40;;
35114;SDS011;21292;52.416;13.046;2022-09-12T10:28:51;1.63;;;1.52;;
35114;SDS011;21292;52.416;13.046;2022-09-12T10:31:25;2.42;;;1.58;;
35114;SDS011;21292;52.416;13.046;2022-09-12T10:33:56;1.67;;;1.58;;
35114;SDS011;21292;52.416;13.046;2022-09-12T10:36:34;2.33;;;2.03;;
35114;SDS011;21292;52.416;13.046;2022-09-12T10:39:03;2.08;;;1.25;;
35114;SDS011;21292;52.416;13.046;2022-09-12T10:41:36;2.05;;;1.48;;
35114;SDS011;21292;52.416;13.046;2022-09-12T10:44:09;4.47;;;1.27;;
35114;SDS011;21292;52.416;13.046;2022-09-12T10:46:44;1.20;;;1.10;;
35114;SDS011;21292;52.416;13.046;2022-09-12T10:49:19;1.88;;;1.48;;
35114;SDS011;21292;52.416;13.046;2022-09-12T10:51:50;3.45;;;1.48;;
35114;SDS011;21292;52.416;13.046;2022-09-12T10:54:20;2.63;;;1.20;;
35114;SDS011;21292;52.416;13.046;2022-09-12T10:56:53;2.05;;;1.00;;
35114;SDS011;21292;52.416;13.046;2022-09-12T10:59:35;3.40;;;1.20;;
35114;SDS011;21292;52.416;13.046;2022-09-12T11:02:17;2.22;;;1.40;;
35114;SDS011;21292;52.416;13.046;2022-09-12T11:04:54;3.65;;;1.98;;
35114;SDS011;21292;52.416;13.046;2022-09-12T11:07:37;2.22;;;1.33;;
35114;SDS011;21292;52.416;13.046;2022-09-12T11:10:12;2.42;;;1.50;;
35114;SDS011;21292;52.416;13.046;2022-09-12T11:12:47;2.53;;;1.55;;
35114;SDS011;21292;52.416;13.046;2022-09-12T11:15:29;2.08;;;1.35;;
35114;SDS011;21292;52.416;13.046;2022-09-12T11:18:06;1.67;;;1.58;;
35114;SDS011;21292;52.416;13.046;2022-09-12T11:23:36;2.67;;;1.50;;
35114;SDS011;21292;52.416;13.046;2022-09-12T11:26:28;2.83;;;1.30;;
35114;SDS011;21292;52.416;13.046;2022-09-12T11:29:04;1.88;;;1.25;;
35114;SDS011;21292;52.416;13.046;2022-09-12T11:37:07;3.10;;;1.35;;
35114;SDS011;21292;52.416;13.046;2022-09-12T11:39:46;2.25;;;1.25;;
35114;SDS011;21292;52.416;13.046;2022-09-12T11:42:22;2.10;;;1.30;;
35114;SDS011;21292;52.416;13.046;2022-09-12T11:44:57;1.75;;;1.50;;
35114;SDS011;21292;52.416;13.046;2022-09-12T11:47:32;2.42;;;1.15;;
35114;SDS011;21292;52.416;13.046;2022-09-12T11:50:02;1.75;;;1.17;;
35114;SDS011;21292;52.416;13.046;2022-09-12T11:55:03;3.05;;;2.50;;
35114;SDS011;21292;52.416;13.046;2022-09-12T11:57:35;1.40;;;1.30;;
35114;SDS011;21292;52.416;13.046;2022-09-12T12:00:13;1.63;;;1.42;;
35114;SDS011;21292;52.416;13.046;2022-09-12T12:02:50;2.50;;;1.33;;
35114;SDS011;21292;52.416;13.046;2022-09-12T12:05:27;1.30;;;1.20;;
35114;SDS011;21292;52.416;13.046;2022-09-12T12:08:04;5.03;;;1.30;;
35114;SDS011;21292;52.416;13.046;2022-09-12T12:10:33;2.05;;;1.10;;
35114;SDS011;21292;52.416;13.046;2022-09-12T12:13:04;1.90;;;1.40;;
35114;SDS011;21292;52.416;13.046;2022-09-12T12:15:41;2.67;;;1.30;;
35114;SDS011;21292;52.416;13.046;2022-09-12T12:18:16;1.40;;;1.30;;
35114;SDS011;21292;52.416;13.046;2022-09-12T12:20:48;2.47;;;1.15;;
35114;SDS011;21292;52.416;13.046;2022-09-12T12:23:23;2.38;;;1.35;;
35114;SDS011;21292;52.416;13.046;2022-09-12T12:25:54;1.80;;;0.98;;
35114;SDS011;21292;52.416;13.046;2022-09-12T12:28:54;2.90;;;1.23;;
35114;SDS011;21292;52.416;13.046;2022-09-12T12:31:25;3.23;;;1.20;;
35114;SDS011;21292;52.416;13.046;2022-09-12T12:36:54;1.92;;;1.17;;
35114;SDS011;21292;52.416;13.046;2022-09-12T12:45:58;2.58;;;1.20;;
35114;SDS011;21292;52.416;13.046;2022-09-12T12:48:33;1.45;;;1.08;;
35114;SDS011;21292;52.416;13.046;2022-09-12T12:51:28;2.28;;;1.27;;
35114;SDS011;21292;52.416;13.046;2022-09-12T12:54:04;2.55;;;1.27;;
35114;SDS011;21292;52.416;13.046;2022-09-12T12:57:17;2.70;;;1.35;;
35114;SDS011;21292;52.416;13.046;2022-09-12T12:59:51;1.75;;;1.30;;
35114;SDS011;21292;52.416;13.046;2022-09-12T13:02:21;2.28;;;1.20;;
35114;SDS011;21292;52.416;13.046;2022-09-12T13:04:52;1.52;;;1.27;;
35114;SDS011;21292;52.416;13.046;2022-09-12T13:07:26;1.50;;;0.95;;
35114;SDS011;21292;52.416;13.046;2022-09-12T13:09:57;3.00;;;1.50;;
35114;SDS011;21292;52.416;13.046;2022-09-12T13:12:27;1.27;;;1.08;;
35114;SDS011;21292;52.416;13.046;2022-09-12T13:14:58;1.50;;;1.15;;
35114;SDS011;21292;52.416;13.046;2022-09-12T13:17:29;1.65;;;1.33;;
35114;SDS011;21292;52.416;13.046;2022-09-12T13:20:04;3.10;;;1.20;;
35114;SDS011;21292;52.416;13.046;2022-09-12T13:22:55;2.67;;;1.40;;
35114;SDS011;21292;52.416;13.046;2022-09-12T13:25:26;3.90;;;1.15;;
35114;SDS011;21292;52.416;13.046;2022-09-12T13:27:59;3.67;;;1.10;;
35114;SDS011;21292;52.416;13.046;2022-09-12T13:30:42;1.85;;;1.15;;
35114;SDS011;21292;52.416;13.046;2022-09-12T13:33:16;1.23;;;1.00;;
35114;SDS011;21292;52.416;13.046;2022-09-12T13:36:08;2.63;;;1.73;;
35114;SDS011;21292;52.416;13.046;2022-09-12T13:39:01;1.52;;;1.20;;
35114;SDS011;21292;52.416;13.046;2022-09-12T13:41:38;2.58;;;1.20;;
35114;SDS011;21292;52.416;13.046;2022-09-12T13:44:13;1.48;;;1.10;;
35114;SDS011;21292;52.416;13.046;2022-09-12T13:46:43;1.52;;;1.27;;
35114;SDS011;21292;52.416;13.046;2022-09-12T13:49:15;3.50;;;1.25;;
35114;SDS011;21292;52.416;13.046;2022-09-12T13:51:50;1.65;;;1.00;;
35114;SDS011;21292;52.416;13.046;2022-09-12T13:54:25;0.90;;;0.90;;
35114;SDS011;21292;52.416;13.046;2022-09-12T13:56:54;1.83;;;1.20;;
35114;SDS011;21292;52.416;13.046;2022-09-12T13:59:22;1.25;;;1.08;;
35114;SDS011;21292;52.416;13.046;2022-09-12T14:01:51;3.08;;;1.40;;
35114;SDS011;21292;52.416;13.046;2022-09-12T14:04:20;1.30;;;1.13;;
35114;SDS011;21292;52.416;13.046;2022-09-12T14:07:11;30.10;;;23.92;;
35114;SDS011;21292;52.416;13.046;2022-09-12T14:09:44;7.25;;;4.50;;
35114;SDS011;21292;52.416;13.046;2022-09-12T14:12:18;5.55;;;3.70;;
35114;SDS011;21292;52.416;13.046;2022-09-12T14:14:51;16.60;;;10.93;;
35114;SDS011;21292;52.416;13.046;2022-09-12T14:17:22;4.13;;;3.28;;
35114;SDS011;21292;52.416;13.046;2022-09-12T14:19:54;2.40;;;2.20;;
35114;SDS011;21292;52.416;13.046;2022-09-12T14:22:25;2.20;;;1.60;;
35114;SDS011;21292;52.416;13.046;2022-09-12T14:24:56;4.40;;;2.92;;
35114;SDS011;21292;52.416;13.046;2022-09-12T14:27:26;3.63;;;1.65;;
35114;SDS011;21292;52.416;13.046;2022-09-12T14:29:59;2.95;;;2.03;;
35114;SDS011;21292;52.416;13.046;2022-09-12T14:32:28;2.38;;;1.50;;
35114;SDS011;21292;52.416;13.046;2022-09-12T14:35:03;7.78;;;2.72;;
35114;SDS011;21292;52.416;13.046;2022-09-12T14:37:32;2.55;;;2.00;;
35114;SDS011;21292;52.416;13.046;2022-09-12T14:40:02;4.47;;;1.65;;
35114;SDS011;21292;52.416;13.046;2022-09-12T14:42:31;2.17;;;1.60;;
35114;SDS011;21292;52.416;13.046;2022-09-12T14:45:01;2.35;;;1.02;;
35114;SDS011;21292;52.416;13.046;2022-09-12T14:47:33;2.70;;;1.23;;
35114;SDS011;21292;52.416;13.046;2022-09-12T14:50:04;2.55;;;1.80;;
35114;SDS011;21292;52.416;13.046;2022-09-12T14:52:42;2.70;;;1.55;;
35114;SDS011;21292;52.416;13.046;2022-09-12T14:55:22;1.88;;;1.50;;
35114;SDS011;21292;52.416;13.046;2022-09-12T14:58:13;1.48;;;1.38;;
35114;SDS011;21292;52.416;13.046;2022-09-12T15:00:56;2.22;;;1.30;;
35114;SDS011;21292;52.416;13.046;2022-09-12T15:03:27;3.78;;;1.52;;
35114;SDS011;21292;52.416;13.046;2022-09-12T15:05:56;1.70;;;1.40;;
35114;SDS011;21292;52.416;13.046;2022-09-12T15:08:25;2.58;;;1.30;;
35114;SDS011;21292;52.416;13.046;2022-09-12T15:10:55;1.83;;;1.60;;
35114;SDS011;21292;52.416;13.046;2022-09-12T15:13:23;2.22;;;1.50;;
35114;SDS011;21292;52.416;13.046;2022-09-12T15:15:54;3.42;;;1.40;;
35114;SDS011;21292;52.416;13.046;2022-09-12T15:18:23;1.30;;;1.20;;
35114;SDS011;21292;52.416;13.046;2022-09-12T15:20:53;2.72;;;1.23;;
35114;SDS011;21292;52.416;13.046;2022-09-12T15:23:26;6.63;;;1.55;;
35114;SDS011;21292;52.416;13.046;2022-09-12T15:25:59;3.17;;;1.20;;
35114;SDS011;21292;52.416;13.046;2022-09-12T15:28:28;3.55;;;1.40;;